createdAt,value
2018-02-23T00:00:25.741Z,45.17
2018-02-23T00:00:57.373Z,50.30
2018-02-23T00:01:28.981Z,50.20
2018-02-23T00:02:00.664Z,44.72
2018-02-23T00:02:32.325Z,42.62
2018-02-23T00:03:03.953Z,43.53
2018-02-23T00:03:35.571Z,53.45
2018-02-23T00:04:07.211Z,49.38
2018-02-23T00:04:38.855Z,46.85
2018-02-23T00:05:10.501Z,44.92
2018-02-23T00:05:42.136Z,47.20
2018-02-23T00:06:13.766Z,43.70
2018-02-23T00:06:45.429Z,47.50
2018-02-23T00:07:17.083Z,41.00
2018-02-23T00:07:48.732Z,46.22
2018-02-23T00:08:20.385Z,43.38
2018-02-23T00:08:52.229Z,41.05
2018-02-23T00:09:23.859Z,44.35
2018-02-23T00:09:55.507Z,46.13
2018-02-23T00:10:27.159Z,40.40
2018-02-23T00:10:58.812Z,43.33
2018-02-23T00:11:30.431Z,49.05
2018-02-23T00:12:02.095Z,41.80
2018-02-23T00:12:33.754Z,48.75
2018-02-23T00:13:05.417Z,48.63
2018-02-23T00:13:37.050Z,46.70
2018-02-23T00:14:08.698Z,47.35
2018-02-23T00:14:40.323Z,43.83
2018-02-23T00:15:11.977Z,46.67
2018-02-23T00:15:43.657Z,41.20
2018-02-23T00:16:15.297Z,43.68
2018-02-23T00:16:46.928Z,49.35
2018-02-23T00:17:18.564Z,44.78
2018-02-23T00:17:50.194Z,49.88
2018-02-23T00:18:21.817Z,45.03
2018-02-23T00:18:53.439Z,45.40
2018-02-23T00:19:25.069Z,44.58
2018-02-23T00:19:56.687Z,44.50
2018-02-23T00:20:28.329Z,48.95
2018-02-23T00:20:59.950Z,46.35
2018-02-23T00:21:31.573Z,48.70
2018-02-23T00:22:03.219Z,44.35
2018-02-23T00:22:40.881Z,44.83
2018-02-23T00:23:12.505Z,47.72
2018-02-23T00:23:44.121Z,47.80
2018-02-23T00:24:15.761Z,46.80
2018-02-23T00:24:47.376Z,41.75
2018-02-23T00:25:18.981Z,43.72
2018-02-23T00:25:50.605Z,45.20
2018-02-23T00:26:22.232Z,46.80
2018-02-23T00:26:53.875Z,44.42
2018-02-23T00:27:25.515Z,46.72
2018-02-23T00:27:57.155Z,50.00
2018-02-23T00:28:28.774Z,48.17
2018-02-23T00:29:00.438Z,44.90
2018-02-23T00:29:32.073Z,44.67
2018-02-23T00:30:03.707Z,45.85
2018-02-23T00:30:35.333Z,41.03
2018-02-23T00:31:06.975Z,46.35
2018-02-23T00:31:38.601Z,48.35
2018-02-23T00:32:10.225Z,46.42
2018-02-23T00:32:41.886Z,37.40
2018-02-23T00:33:13.489Z,40.97
2018-02-23T00:33:45.102Z,46.30
2018-02-23T00:34:16.729Z,55.35
2018-02-23T00:34:48.355Z,41.00
2018-02-23T00:35:20.005Z,44.72
2018-02-23T00:35:51.635Z,46.78
2018-02-23T00:36:23.302Z,39.55
2018-02-23T00:36:54.936Z,39.90
2018-02-23T00:37:26.566Z,46.00
2018-02-23T00:37:58.173Z,39.20
2018-02-23T00:38:29.791Z,43.22
2018-02-23T00:39:01.431Z,47.30
2018-02-23T00:39:33.072Z,41.10
2018-02-23T00:40:04.731Z,43.70
2018-02-23T00:40:36.375Z,44.78
2018-02-23T00:41:07.985Z,43.80
2018-02-23T00:41:39.628Z,43.38
2018-02-23T00:42:11.254Z,48.17
2018-02-23T00:42:42.875Z,42.28
2018-02-23T00:43:14.526Z,43.75
2018-02-23T00:43:46.145Z,44.42
2018-02-23T00:44:17.755Z,39.95
2018-02-23T00:44:49.359Z,42.97
2018-02-23T00:45:20.955Z,38.78
2018-02-23T00:45:52.579Z,41.55
2018-02-23T00:46:24.219Z,43.70
2018-02-23T00:46:55.831Z,32.80
2018-02-23T00:47:27.465Z,37.47
2018-02-23T00:47:59.088Z,45.92
2018-02-23T00:48:30.725Z,48.20
2018-02-23T00:49:02.353Z,43.22
2018-02-23T00:49:33.965Z,44.97
2018-02-23T00:50:05.621Z,45.17
2018-02-23T00:50:37.234Z,45.05
2018-02-23T00:51:08.858Z,42.67
2018-02-23T00:51:40.491Z,48.95
2018-02-23T00:52:12.124Z,40.45
2018-02-23T00:52:43.757Z,42.80
2018-02-23T00:53:15.365Z,46.50
2018-02-23T00:53:47.007Z,48.50
2018-02-23T00:54:18.611Z,48.87
2018-02-23T00:54:50.237Z,46.63
2018-02-23T00:55:21.884Z,42.67
2018-02-23T00:55:53.523Z,41.28
2018-02-23T00:56:25.121Z,49.63
2018-02-23T00:56:56.758Z,44.58
2018-02-23T00:57:28.438Z,46.30
2018-02-23T00:58:00.060Z,46.47
2018-02-23T00:58:31.693Z,46.03
2018-02-23T00:59:03.317Z,47.13
2018-02-23T00:59:34.944Z,46.00
2018-02-23T01:00:06.591Z,47.30
2018-02-23T01:00:38.247Z,45.67
2018-02-23T01:01:09.905Z,48.30
2018-02-23T01:01:41.529Z,43.90
2018-02-23T01:02:13.183Z,53.63
2018-02-23T01:02:44.836Z,45.10
2018-02-23T01:03:16.457Z,51.63
2018-02-23T01:03:48.071Z,50.95
2018-02-23T01:04:19.709Z,47.53
2018-02-23T01:04:51.343Z,45.15
2018-02-23T01:05:22.988Z,49.78
2018-02-23T01:05:54.602Z,43.65
2018-02-23T01:06:26.227Z,43.42
2018-02-23T01:06:57.870Z,49.65
2018-02-23T01:07:29.521Z,47.40
2018-02-23T01:08:01.178Z,48.00
2018-02-23T01:08:32.817Z,48.13
2018-02-23T01:09:04.461Z,46.95
2018-02-23T01:09:36.097Z,41.50
2018-02-23T01:10:07.697Z,53.33
2018-02-23T01:10:39.317Z,51.72
2018-02-23T01:11:10.959Z,47.78
2018-02-23T01:11:42.571Z,51.53
2018-02-23T01:12:14.217Z,45.45
2018-02-23T01:12:45.877Z,47.58
2018-02-23T01:13:17.547Z,44.38
2018-02-23T01:13:49.154Z,44.83
2018-02-23T01:14:20.788Z,45.03
2018-02-23T01:14:52.422Z,52.05
2018-02-23T01:15:24.085Z,52.20
2018-02-23T01:15:55.711Z,56.00
2018-02-23T01:16:27.345Z,52.47
2018-02-23T01:16:58.965Z,47.97
2018-02-23T01:17:30.597Z,48.13
2018-02-23T01:18:02.225Z,53.65
2018-02-23T01:18:33.837Z,49.28
2018-02-23T01:19:05.477Z,45.75
2018-02-23T01:19:37.112Z,52.28
2018-02-23T01:20:08.737Z,48.55
2018-02-23T01:20:40.347Z,50.72
2018-02-23T01:21:11.951Z,56.25
2018-02-23T01:21:43.573Z,53.30
2018-02-23T01:22:15.191Z,57.50
2018-02-23T01:22:46.824Z,47.13
2018-02-23T01:23:18.423Z,49.30
2018-02-23T01:23:50.072Z,54.22
2018-02-23T01:24:21.680Z,53.90
2018-02-23T01:24:53.308Z,52.95
2018-02-23T01:25:24.937Z,54.00
2018-02-23T01:25:56.561Z,55.67
2018-02-23T01:26:28.188Z,58.25
2018-02-23T01:26:59.837Z,55.78
2018-02-23T01:27:31.449Z,58.85
2018-02-23T01:28:03.072Z,61.80
2018-02-23T01:28:34.680Z,50.17
2018-02-23T01:29:06.339Z,54.63
2018-02-23T01:29:37.991Z,53.90
2018-02-23T01:30:09.641Z,59.58
2018-02-23T01:30:41.265Z,66.25
2018-02-23T01:31:13.479Z,56.13
2018-02-23T01:31:45.104Z,60.15
2018-02-23T01:32:16.729Z,42.08
2018-02-23T01:32:48.344Z,65.10
2018-02-23T01:33:19.961Z,63.78
2018-02-23T01:33:51.577Z,70.25
2018-02-23T01:34:23.185Z,65.82
2018-02-23T01:34:54.816Z,61.88
2018-02-23T01:35:26.417Z,61.33
2018-02-23T01:35:58.033Z,57.80
2018-02-23T01:36:29.645Z,58.87
2018-02-23T01:37:01.290Z,61.00
2018-02-23T01:37:32.929Z,60.63
2018-02-23T01:38:04.553Z,57.53
2018-02-23T01:38:36.189Z,65.32
2018-02-23T01:39:07.823Z,56.78
2018-02-23T01:39:39.446Z,58.53
2018-02-23T01:40:11.054Z,66.28
2018-02-23T01:40:42.676Z,58.50
2018-02-23T01:41:14.301Z,53.00
2018-02-23T01:41:45.977Z,63.28
2018-02-23T01:42:17.607Z,62.35
2018-02-23T01:42:49.235Z,62.03
2018-02-23T01:43:20.853Z,60.80
2018-02-23T01:43:52.495Z,62.40
2018-02-23T01:44:24.132Z,56.63
2018-02-23T01:44:55.758Z,59.45
2018-02-23T01:45:27.381Z,54.60
2018-02-23T01:45:59.025Z,66.12
2018-02-23T01:46:30.655Z,57.17
2018-02-23T01:47:02.247Z,70.97
2018-02-23T01:47:33.881Z,51.55
2018-02-23T01:48:05.511Z,72.35
2018-02-23T01:48:37.145Z,68.95
2018-02-23T01:49:08.753Z,58.65
2018-02-23T01:49:40.384Z,63.97
2018-02-23T01:50:12.020Z,59.26
2018-02-23T01:50:59.013Z,62.95
2018-02-23T01:51:30.615Z,55.42
2018-02-23T01:52:02.249Z,55.28
2018-02-23T01:52:33.876Z,54.83
2018-02-23T01:53:05.504Z,56.00
2018-02-23T01:53:37.107Z,55.92
2018-02-23T01:54:08.913Z,46.65
2018-02-23T01:54:40.545Z,50.75
2018-02-23T01:55:12.165Z,56.58
2018-02-23T01:55:43.781Z,52.25
2018-02-23T01:56:15.405Z,48.55
2018-02-23T01:56:47.019Z,48.75
2018-02-23T01:57:18.665Z,48.60
2018-02-23T01:57:50.310Z,50.70
2018-02-23T01:58:21.973Z,54.13
2018-02-23T01:58:53.613Z,47.05
2018-02-23T01:59:25.219Z,52.80
2018-02-23T01:59:56.881Z,50.80
2018-02-23T02:00:28.545Z,53.95
2018-02-23T02:01:00.176Z,50.42
2018-02-23T02:01:31.827Z,54.53
2018-02-23T02:02:03.454Z,52.97
2018-02-23T02:02:35.087Z,55.95
2018-02-23T02:03:06.710Z,53.70
2018-02-23T02:03:38.397Z,52.90
2018-02-23T02:04:10.343Z,52.00
2018-02-23T02:04:41.979Z,52.47
2018-02-23T02:05:13.571Z,56.55
2018-02-23T02:05:45.189Z,51.03
2018-02-23T02:06:16.828Z,52.40
2018-02-23T02:06:48.485Z,50.25
2018-02-23T02:07:20.102Z,56.90
2018-02-23T02:07:51.725Z,55.08
2018-02-23T02:08:23.351Z,51.67
2018-02-23T02:08:54.965Z,49.60
2018-02-23T02:09:26.627Z,55.40
2018-02-23T02:09:58.251Z,52.80
2018-02-23T02:10:29.889Z,54.92
2018-02-23T02:11:01.517Z,59.80
2018-02-23T02:11:33.139Z,59.00
2018-02-23T02:12:04.777Z,58.67
2018-02-23T02:12:36.417Z,59.38
2018-02-23T02:13:08.051Z,58.92
2018-02-23T02:13:39.659Z,62.28
2018-02-23T02:14:11.289Z,59.58
2018-02-23T02:14:42.905Z,61.03
2018-02-23T02:15:14.547Z,63.90
2018-02-23T02:15:46.195Z,58.03
2018-02-23T02:16:17.862Z,60.90
2018-02-23T02:16:49.484Z,60.08
2018-02-23T02:17:21.117Z,53.45
2018-02-23T02:17:52.757Z,60.33
2018-02-23T02:18:24.391Z,67.75
2018-02-23T02:18:56.017Z,65.05
2018-02-23T02:19:27.663Z,59.67
2018-02-23T02:19:59.319Z,63.65
2018-02-23T02:20:30.973Z,59.80
2018-02-23T02:21:02.616Z,57.92
2018-02-23T02:21:34.339Z,62.60
2018-02-23T02:22:05.952Z,63.15
2018-02-23T02:22:37.614Z,53.97
2018-02-23T02:23:09.261Z,58.85
2018-02-23T02:23:40.885Z,56.20
2018-02-23T02:24:12.545Z,57.85
2018-02-23T02:24:44.218Z,52.03
2018-02-23T02:25:15.810Z,55.90
2018-02-23T02:25:47.422Z,66.03
2018-02-23T02:26:19.053Z,68.50
2018-02-23T02:26:50.701Z,65.22
2018-02-23T02:27:22.309Z,63.33
2018-02-23T02:27:53.921Z,62.76
2018-02-23T02:28:25.549Z,62.65
2018-02-23T02:28:57.230Z,69.12
2018-02-23T02:29:28.893Z,62.45
2018-02-23T02:30:00.542Z,62.80
2018-02-23T02:30:32.199Z,60.92
2018-02-23T02:31:03.854Z,65.72
2018-02-23T02:31:35.496Z,64.22
2018-02-23T02:32:07.125Z,65.72
2018-02-23T02:32:38.747Z,69.87
2018-02-23T02:33:10.395Z,58.25
2018-02-23T02:33:42.036Z,75.15
2018-02-23T02:34:13.683Z,68.57
2018-02-23T02:34:45.311Z,78.03
2018-02-23T02:35:16.953Z,68.72
2018-02-23T02:35:48.557Z,77.32
2018-02-23T02:36:20.211Z,79.30
2018-02-23T02:36:51.867Z,81.05
2018-02-23T02:37:23.503Z,69.62
2018-02-23T02:37:55.123Z,72.15
2018-02-23T02:38:26.770Z,68.35
2018-02-23T02:38:58.400Z,74.32
2018-02-23T02:39:30.015Z,67.43
2018-02-23T02:40:01.654Z,70.95
2018-02-23T02:40:33.298Z,67.43
2018-02-23T02:41:04.929Z,59.33
2018-02-23T02:41:36.561Z,58.95
2018-02-23T02:42:08.200Z,61.88
2018-02-23T02:42:39.817Z,65.85
2018-02-23T02:43:11.433Z,70.25
2018-02-23T02:43:43.050Z,57.45
2018-02-23T02:44:14.717Z,77.60
2018-02-23T02:44:46.393Z,62.53
2018-02-23T02:45:18.000Z,61.50
2018-02-23T02:45:49.611Z,61.50
2018-02-23T02:46:21.230Z,65.03
2018-02-23T02:46:52.864Z,63.40
2018-02-23T02:47:24.468Z,59.85
2018-02-23T02:47:56.089Z,64.97
2018-02-23T02:48:27.721Z,67.40
2018-02-23T02:48:59.325Z,65.57
2018-02-23T02:49:30.937Z,61.30
2018-02-23T02:50:02.603Z,60.30
2018-02-23T02:50:34.225Z,61.37
2018-02-23T02:51:05.854Z,61.75
2018-02-23T02:51:37.566Z,63.67
2018-02-23T02:52:09.508Z,56.00
2018-02-23T02:52:41.126Z,66.87
2018-02-23T02:53:12.765Z,64.90
2018-02-23T02:53:44.429Z,68.65
2018-02-23T02:54:16.045Z,62.60
2018-02-23T02:54:47.671Z,62.72
2018-02-23T02:55:19.289Z,64.18
2018-02-23T02:55:50.919Z,66.12
2018-02-23T02:56:22.558Z,63.35
2018-02-23T02:56:54.174Z,62.40
2018-02-23T02:57:25.789Z,67.57
2018-02-23T02:57:57.412Z,59.80
2018-02-23T02:58:29.043Z,56.90
2018-02-23T02:59:00.681Z,90.65
2018-02-23T02:59:32.285Z,58.20
2018-02-23T03:00:03.977Z,56.53
2018-02-23T03:00:35.633Z,51.97
2018-02-23T03:01:07.253Z,58.30
2018-02-23T03:01:38.913Z,63.67
2018-02-23T03:02:10.578Z,62.83
2018-02-23T03:02:42.220Z,61.60
2018-02-23T03:03:13.848Z,66.35
2018-02-23T03:03:45.527Z,63.58
2018-02-23T03:04:17.161Z,63.33
2018-02-23T03:04:48.796Z,63.92
2018-02-23T03:05:20.407Z,59.53
2018-02-23T03:05:52.024Z,66.05
2018-02-23T03:06:23.639Z,60.70
2018-02-23T03:06:55.259Z,65.78
2018-02-23T03:07:26.869Z,59.75
2018-02-23T03:07:58.508Z,57.97
2018-02-23T03:08:30.141Z,58.47
2018-02-23T03:09:01.772Z,72.75
2018-02-23T03:09:33.399Z,61.83
2018-02-23T03:10:05.023Z,65.70
2018-02-23T03:10:36.641Z,63.22
2018-02-23T03:11:08.285Z,60.42
2018-02-23T03:11:39.941Z,68.65
2018-02-23T03:12:11.577Z,69.70
2018-02-23T03:12:43.208Z,66.97
2018-02-23T03:13:14.809Z,60.25
2018-02-23T03:13:46.408Z,61.15
2018-02-23T03:14:18.025Z,64.07
2018-02-23T03:14:49.651Z,61.85
2018-02-23T03:15:21.263Z,57.20
2018-02-23T03:15:52.863Z,61.05
2018-02-23T03:16:24.493Z,63.40
2018-02-23T03:16:56.117Z,64.70
2018-02-23T03:17:27.747Z,69.53
2018-02-23T03:17:59.365Z,69.32
2018-02-23T03:18:30.990Z,59.75
2018-02-23T03:19:02.627Z,55.70
2018-02-23T03:19:34.232Z,66.53
2018-02-23T03:20:05.853Z,67.25
2018-02-23T03:20:37.477Z,65.53
2018-02-23T03:21:09.128Z,60.38
2018-02-23T03:21:40.737Z,69.12
2018-02-23T03:22:12.359Z,66.62
2018-02-23T03:22:43.986Z,67.12
2018-02-23T03:23:15.599Z,62.10
2018-02-23T03:23:47.229Z,62.88
2018-02-23T03:24:18.851Z,67.65
2018-02-23T03:24:50.521Z,62.22
2018-02-23T03:25:22.165Z,62.60
2018-02-23T03:25:53.787Z,64.07
2018-02-23T03:26:25.419Z,65.05
2018-02-23T03:26:57.053Z,64.90
2018-02-23T03:27:28.702Z,64.07
2018-02-23T03:28:00.326Z,60.20
2018-02-23T03:28:31.925Z,68.07
2018-02-23T03:29:03.563Z,65.80
2018-02-23T03:29:35.162Z,62.95
2018-02-23T03:30:06.806Z,71.47
2018-02-23T03:30:38.418Z,65.93
2018-02-23T03:31:10.055Z,63.75
2018-02-23T03:31:41.683Z,67.70
2018-02-23T03:32:13.288Z,64.82
2018-02-23T03:32:44.912Z,63.13
2018-02-23T03:33:16.521Z,61.42
2018-02-23T03:33:48.145Z,58.90
2018-02-23T03:34:19.761Z,61.58
2018-02-23T03:34:51.369Z,64.72
2018-02-23T03:35:23.001Z,71.80
2018-02-23T03:35:54.621Z,65.65
2018-02-23T03:36:26.241Z,68.22
2018-02-23T03:36:57.885Z,68.12
2018-02-23T03:37:29.553Z,64.15
2018-02-23T03:38:01.191Z,63.25
2018-02-23T03:38:32.824Z,67.35
2018-02-23T03:39:04.501Z,71.43
2018-02-23T03:39:36.118Z,70.75
2018-02-23T03:40:07.733Z,66.45
2018-02-23T03:40:39.360Z,75.12
2018-02-23T03:41:10.980Z,75.40
2018-02-23T03:41:42.589Z,69.37
2018-02-23T03:42:14.201Z,71.10
2018-02-23T03:42:45.823Z,50.80
2018-02-23T03:43:17.471Z,80.40
2018-02-23T03:43:49.071Z,78.07
2018-02-23T03:44:20.679Z,72.62
2018-02-23T03:44:52.314Z,78.20
2018-02-23T03:45:23.929Z,73.70
2018-02-23T03:45:55.568Z,71.12
2018-02-23T03:46:27.202Z,72.85
2018-02-23T03:46:58.825Z,65.20
2018-02-23T03:47:30.462Z,63.55
2018-02-23T03:48:02.094Z,69.20
2018-02-23T03:48:33.711Z,61.67
2018-02-23T03:49:05.321Z,69.60
2018-02-23T03:49:36.955Z,68.30
2018-02-23T03:50:08.581Z,63.40
2018-02-23T03:50:40.199Z,66.10
2018-02-23T03:51:11.824Z,75.72
2018-02-23T03:51:43.429Z,67.35
2018-02-23T03:52:15.075Z,77.75
2018-02-23T03:52:46.685Z,77.53
2018-02-23T03:53:18.316Z,69.10
2018-02-23T03:53:49.961Z,69.43
2018-02-23T03:54:21.637Z,65.28
2018-02-23T03:54:53.279Z,65.00
2018-02-23T03:55:24.926Z,63.87
2018-02-23T03:55:56.565Z,62.22
2018-02-23T03:56:28.205Z,62.17
2018-02-23T03:56:59.813Z,65.78
2018-02-23T03:57:31.446Z,67.15
2018-02-23T03:58:03.094Z,68.45
2018-02-23T03:58:34.717Z,66.03
2018-02-23T03:59:06.377Z,67.87
2018-02-23T03:59:38.005Z,72.97
2018-02-23T04:00:09.633Z,68.62
2018-02-23T04:00:41.260Z,74.85
2018-02-23T04:01:13.023Z,65.97
2018-02-23T04:01:44.640Z,73.30
2018-02-23T04:02:16.247Z,76.18
2018-02-23T04:02:47.885Z,64.80
2018-02-23T04:03:19.529Z,70.65
2018-02-23T04:03:51.148Z,63.00
2018-02-23T04:04:22.790Z,68.65
2018-02-23T04:04:54.419Z,74.90
2018-02-23T04:05:26.043Z,67.25
2018-02-23T04:05:57.652Z,76.20
2018-02-23T04:06:29.294Z,68.45
2018-02-23T04:07:00.914Z,71.30
2018-02-23T04:07:32.547Z,65.20
2018-02-23T04:08:04.172Z,70.87
2018-02-23T04:08:35.793Z,76.25
2018-02-23T04:09:07.417Z,66.32
2018-02-23T04:09:39.045Z,63.25
2018-02-23T04:10:10.653Z,66.25
2018-02-23T04:10:42.279Z,68.93
2018-02-23T04:11:13.896Z,72.05
2018-02-23T04:11:45.523Z,69.62
2018-02-23T04:12:17.181Z,66.62
2018-02-23T04:12:48.818Z,69.70
2018-02-23T04:13:20.445Z,70.78
2018-02-23T04:13:52.077Z,58.13
2018-02-23T04:14:23.707Z,77.50
2018-02-23T04:14:55.335Z,68.93
2018-02-23T04:15:26.964Z,65.37
2018-02-23T04:15:58.590Z,71.10
2018-02-23T04:16:30.213Z,65.37
2018-02-23T04:17:01.823Z,70.60
2018-02-23T04:17:33.448Z,74.80
2018-02-23T04:18:05.055Z,65.30
2018-02-23T04:18:36.680Z,57.28
2018-02-23T04:19:08.289Z,66.15
2018-02-23T04:19:39.905Z,70.03
2018-02-23T04:20:11.541Z,67.53
2018-02-23T04:20:43.152Z,64.85
2018-02-23T04:21:14.771Z,76.55
2018-02-23T04:21:46.401Z,73.53
2018-02-23T04:22:18.033Z,70.45
2018-02-23T04:22:49.683Z,69.72
2018-02-23T04:23:21.333Z,66.43
2018-02-23T04:23:52.964Z,66.20
2018-02-23T04:24:24.593Z,73.28
2018-02-23T04:24:56.220Z,65.22
2018-02-23T04:25:27.866Z,67.25
2018-02-23T04:25:59.493Z,66.12
2018-02-23T04:26:31.131Z,66.65
2018-02-23T04:27:02.762Z,70.28
2018-02-23T04:27:34.369Z,68.90
2018-02-23T04:28:06.017Z,64.43
2018-02-23T04:28:37.653Z,66.15
2018-02-23T04:29:09.269Z,73.87
2018-02-23T04:29:40.894Z,71.22
2018-02-23T04:30:12.513Z,64.12
2018-02-23T04:30:44.134Z,58.92
2018-02-23T04:31:15.759Z,64.20
2018-02-23T04:31:47.372Z,71.75
2018-02-23T04:32:18.982Z,68.95
2018-02-23T04:32:50.621Z,73.75
2018-02-23T04:33:22.245Z,69.60
2018-02-23T04:33:53.873Z,65.03
2018-02-23T04:34:25.530Z,62.30
2018-02-23T04:34:57.157Z,67.85
2018-02-23T04:35:28.773Z,64.32
2018-02-23T04:36:00.409Z,61.55
2018-02-23T04:36:32.022Z,65.10
2018-02-23T04:37:03.641Z,50.12
2018-02-23T04:37:35.280Z,68.68
2018-02-23T04:38:06.917Z,71.07
2018-02-23T04:38:38.528Z,73.72
2018-02-23T04:39:10.138Z,71.18
2018-02-23T04:39:41.777Z,71.45
2018-02-23T04:40:13.411Z,68.93
2018-02-23T04:40:45.029Z,72.35
2018-02-23T04:41:16.661Z,70.62
2018-02-23T04:41:48.274Z,70.90
2018-02-23T04:42:19.880Z,77.55
2018-02-23T04:42:51.469Z,78.95
2018-02-23T04:43:23.142Z,80.62
2018-02-23T04:43:54.761Z,71.53
2018-02-23T04:44:26.378Z,78.28
2018-02-23T04:44:58.033Z,76.30
2018-02-23T04:45:29.650Z,75.97
2018-02-23T04:46:01.292Z,87.03
2018-02-23T04:46:32.905Z,75.03
2018-02-23T04:47:04.522Z,73.35
2018-02-23T04:47:36.136Z,72.05
2018-02-23T04:48:07.749Z,66.75
2018-02-23T04:48:39.384Z,75.25
2018-02-23T04:49:11.039Z,73.95
2018-02-23T04:49:42.658Z,76.68
2018-02-23T04:50:14.277Z,82.88
2018-02-23T04:50:45.904Z,76.30
2018-02-23T04:51:17.560Z,100.00
2018-02-23T04:51:49.179Z,79.32
2018-02-23T04:52:20.801Z,75.00
2018-02-23T04:52:52.434Z,73.72
2018-02-23T04:53:24.057Z,75.57
2018-02-23T04:53:55.676Z,73.87
2018-02-23T04:54:27.301Z,72.07
2018-02-23T04:54:58.904Z,72.12
2018-02-23T04:55:30.509Z,69.75
2018-02-23T04:56:02.152Z,72.95
2018-02-23T04:56:33.770Z,67.25
2018-02-23T04:57:05.392Z,66.25
2018-02-23T04:57:37.003Z,72.60
2018-02-23T04:58:08.649Z,69.97
2018-02-23T04:58:40.256Z,85.03
2018-02-23T04:59:11.880Z,77.22
2018-02-23T04:59:43.503Z,74.35
2018-02-23T05:00:15.135Z,71.85
2018-02-23T05:00:46.819Z,78.50
2018-02-23T05:01:18.443Z,72.76
2018-02-23T05:01:50.101Z,77.70
2018-02-23T05:02:21.703Z,73.85
2018-02-23T05:02:53.397Z,74.47
2018-02-23T05:03:25.048Z,76.82
2018-02-23T05:03:56.673Z,71.65
2018-02-23T05:04:28.301Z,71.35
2018-02-23T05:04:59.933Z,96.95
2018-02-23T05:05:31.578Z,83.00
2018-02-23T05:06:03.199Z,76.03
2018-02-23T05:06:34.813Z,87.10
2018-02-23T05:07:06.450Z,76.78
2018-02-23T05:07:38.070Z,82.68
2018-02-23T05:08:09.694Z,68.43
2018-02-23T05:08:41.290Z,91.70
2018-02-23T05:09:12.913Z,79.75
2018-02-23T05:09:44.563Z,87.05
2018-02-23T05:10:16.193Z,74.50
2018-02-23T05:10:47.843Z,79.72
2018-02-23T05:11:19.477Z,79.25
2018-02-23T05:11:51.113Z,79.07
2018-02-23T05:12:22.775Z,83.28
2018-02-23T05:12:54.442Z,88.57
2018-02-23T05:13:26.087Z,79.20
2018-02-23T05:13:57.695Z,71.43
2018-02-23T05:14:29.305Z,82.88
2018-02-23T05:15:00.939Z,84.07
2018-02-23T05:15:32.565Z,75.45
2018-02-23T05:16:10.408Z,78.35
2018-02-23T05:16:42.033Z,86.82
2018-02-23T05:17:13.674Z,83.10
2018-02-23T05:17:45.296Z,78.57
2018-02-23T05:18:16.937Z,80.44
2018-02-23T05:18:48.596Z,79.65
2018-02-23T05:19:20.245Z,81.60
2018-02-23T05:19:51.866Z,76.28
2018-02-23T05:20:23.487Z,77.07
2018-02-23T05:20:55.121Z,82.15
2018-02-23T05:21:26.763Z,80.87
2018-02-23T05:21:58.417Z,70.93
2018-02-23T05:22:30.075Z,77.00
2018-02-23T05:23:01.697Z,65.50
2018-02-23T05:23:33.310Z,79.65
2018-02-23T05:24:04.941Z,84.20
2018-02-23T05:24:36.588Z,82.97
2018-02-23T05:25:08.243Z,72.65
2018-02-23T05:25:39.884Z,75.35
2018-02-23T05:26:11.561Z,87.20
2018-02-23T05:26:43.175Z,81.40
2018-02-23T05:27:14.803Z,75.68
2018-02-23T05:27:46.412Z,77.90
2018-02-23T05:28:18.080Z,75.37
2018-02-23T05:28:49.764Z,86.05
2018-02-23T05:29:21.396Z,74.03
2018-02-23T05:29:53.031Z,74.80
2018-02-23T05:30:24.671Z,74.85
2018-02-23T05:30:56.338Z,74.12
2018-02-23T05:31:27.986Z,75.18
2018-02-23T05:31:59.614Z,78.10
2018-02-23T05:32:31.258Z,79.53
2018-02-23T05:33:02.885Z,78.62
2018-02-23T05:33:34.515Z,82.82
2018-02-23T05:34:06.163Z,74.95
2018-02-23T05:34:37.795Z,84.95
2018-02-23T05:35:09.423Z,78.78
2018-02-23T05:35:41.088Z,66.35
2018-02-23T05:36:12.722Z,85.20
2018-02-23T05:36:44.697Z,82.43
2018-02-23T05:37:16.328Z,72.90
2018-02-23T05:37:47.962Z,75.50
2018-02-23T05:38:19.630Z,75.70
2018-02-23T05:38:51.290Z,80.32
2018-02-23T05:39:22.914Z,71.28
2018-02-23T05:39:54.523Z,68.18
2018-02-23T05:40:26.165Z,71.93
2018-02-23T05:40:57.788Z,63.75
2018-02-23T05:41:29.387Z,71.65
2018-02-23T05:42:01.020Z,59.13
2018-02-23T05:42:32.638Z,79.22
2018-02-23T05:43:04.258Z,72.28
2018-02-23T05:43:35.890Z,80.00
2018-02-23T05:44:07.507Z,76.03
2018-02-23T05:44:39.145Z,75.97
2018-02-23T05:45:10.778Z,76.60
2018-02-23T05:45:42.423Z,87.82
2018-02-23T05:46:14.071Z,75.03
2018-02-23T05:46:45.722Z,77.25
2018-02-23T05:47:17.361Z,76.45
2018-02-23T05:47:48.996Z,76.37
2018-02-23T05:48:20.616Z,72.12
2018-02-23T05:48:52.241Z,67.55
2018-02-23T05:49:23.853Z,86.97
2018-02-23T05:49:55.481Z,72.03
2018-02-23T05:50:27.095Z,71.97
2018-02-23T05:50:58.696Z,77.18
2018-02-23T05:51:30.320Z,71.75
2018-02-23T05:52:01.935Z,78.85
2018-02-23T05:52:33.573Z,71.28
2018-02-23T05:53:05.192Z,80.53
2018-02-23T05:53:36.802Z,76.43
2018-02-23T05:54:08.464Z,69.65
2018-02-23T05:54:40.085Z,74.93
2018-02-23T05:55:26.633Z,70.30
2018-02-23T05:55:58.276Z,78.37
2018-02-23T05:56:29.892Z,68.00
2018-02-23T05:57:01.527Z,76.93
2018-02-23T05:57:33.136Z,84.37
2018-02-23T05:58:04.793Z,56.78
2018-02-23T05:58:36.430Z,76.43
2018-02-23T05:59:08.060Z,86.53
2018-02-23T05:59:39.667Z,95.18
2018-02-23T06:00:11.280Z,81.55
2018-02-23T06:00:42.933Z,83.25
2018-02-23T06:01:14.553Z,73.12
2018-02-23T06:01:46.175Z,59.63
2018-02-23T06:02:17.817Z,82.55
2018-02-23T06:02:49.420Z,74.85
2018-02-23T06:03:21.077Z,72.43
2018-02-23T06:03:52.681Z,78.22
2018-02-23T06:04:24.286Z,74.12
2018-02-23T06:04:55.924Z,79.15
2018-02-23T06:05:27.545Z,71.03
2018-02-23T06:05:59.160Z,85.47
2018-02-23T06:06:30.781Z,75.75
2018-02-23T06:07:02.420Z,71.55
2018-02-23T06:07:34.033Z,66.57
2018-02-23T06:08:05.669Z,72.62
2018-02-23T06:08:37.326Z,73.43
2018-02-23T06:09:08.976Z,67.15
2018-02-23T06:09:40.594Z,81.57
2018-02-23T06:10:12.221Z,74.90
2018-02-23T06:10:43.863Z,78.60
2018-02-23T06:11:15.495Z,78.00
2018-02-23T06:11:47.139Z,81.63
2018-02-23T06:12:18.744Z,85.72
2018-02-23T06:12:50.352Z,86.20
2018-02-23T06:13:21.964Z,83.40
2018-02-23T06:13:53.616Z,76.70
2018-02-23T06:14:25.218Z,81.63
2018-02-23T06:14:56.852Z,79.45
2018-02-23T06:15:34.598Z,80.93
2018-02-23T06:16:12.281Z,67.70
2018-02-23T06:16:43.901Z,94.03
2018-02-23T06:17:21.736Z,71.50
2018-02-23T06:17:59.549Z,82.82
2018-02-23T06:18:37.332Z,87.97
2018-02-23T06:19:08.985Z,85.72
2018-02-23T06:19:46.926Z,85.85
2018-02-23T06:20:24.771Z,79.75
2018-02-23T06:20:56.406Z,78.80
2018-02-23T06:21:28.017Z,79.32
2018-02-23T06:21:59.624Z,80.32
2018-02-23T06:22:31.233Z,72.45
2018-02-23T06:23:02.869Z,81.03
2018-02-23T06:23:34.511Z,80.93
2018-02-23T06:24:06.104Z,68.57
2018-02-23T06:24:37.745Z,76.70
2018-02-23T06:25:09.355Z,61.30
2018-02-23T06:25:40.985Z,67.12
2018-02-23T06:26:12.616Z,71.93
2018-02-23T06:26:44.242Z,71.03
2018-02-23T06:27:15.870Z,65.87
2018-02-23T06:27:47.491Z,67.40
2018-02-23T06:28:19.121Z,70.22
2018-02-23T06:28:50.750Z,69.55
2018-02-23T06:29:22.384Z,63.90
2018-02-23T06:29:54.008Z,61.80
2018-02-23T06:30:25.617Z,68.97
2018-02-23T06:30:57.245Z,60.97
2018-02-23T06:31:28.859Z,59.83
2018-02-23T06:32:00.507Z,76.55
2018-02-23T06:32:32.117Z,77.43
2018-02-23T06:33:03.748Z,76.57
2018-02-23T06:33:35.375Z,67.60
2018-02-23T06:34:07.009Z,63.55
2018-02-23T06:34:38.628Z,63.25
2018-02-23T06:35:10.262Z,70.32
2018-02-23T06:35:41.855Z,66.18
2018-02-23T06:36:13.471Z,61.75
2018-02-23T06:36:45.102Z,64.00
2018-02-23T06:37:16.722Z,65.35
2018-02-23T06:37:48.364Z,74.00
2018-02-23T06:38:19.992Z,68.53
2018-02-23T06:38:51.632Z,69.55
2018-02-23T06:39:23.251Z,64.18
2018-02-23T06:39:54.876Z,67.05
2018-02-23T06:40:26.505Z,56.72
2018-02-23T06:40:58.120Z,59.53
2018-02-23T06:41:29.717Z,62.83
2018-02-23T06:42:01.344Z,53.67
2018-02-23T06:42:32.973Z,71.03
2018-02-23T06:43:04.596Z,62.85
2018-02-23T06:43:36.247Z,70.93
2018-02-23T06:44:07.876Z,66.72
2018-02-23T06:44:39.509Z,60.85
2018-02-23T06:45:11.133Z,64.93
2018-02-23T06:45:42.804Z,75.95
2018-02-23T06:46:14.434Z,78.43
2018-02-23T06:46:46.090Z,61.63
2018-02-23T06:47:17.714Z,66.43
2018-02-23T06:47:49.324Z,67.12
2018-02-23T06:48:20.949Z,61.83
2018-02-23T06:48:52.576Z,48.38